Huvudsida
METAR-TAF:

METAR-TAF

Flygplatser :

Sultan Aji Muhamad Sulaiman flygplats

Balikpapan, Indonesien

latitud: 01-16-06S, longitud: 116-53-40E, höjd: 4 m

Aktuellt väderrapport

Denna rapport gjordes för 36 minuter sedan, klockan 20:30 UTC
Vind 4 kt från nord
Temperatur 27°C
Fuktighet 84%
Tryck 1009 hPa
Sikt: 9000 m
Få moln på en höjd av 2000 ft

METAR: WALL 222030Z 01004KT 9000 FEW020 27/24 Q1009 NOSIG

Tid: 04:06 (21:06 UTC)

Väderprognos

Denna rapport gjordes för 4 timmar och 6 minuter sedan, klockan 17:00 UTC
Prognos gäller från 22 kl. 18 UTC till 23 kl. 24 UTC
Vind 5 kt från nord
Sikt: 9000 m
Få moln på en höjd av 2000 ft

TAF: WALL 221700Z 2218/2324 35005KT 9000 FEW020

Aktuella väderrapporter och prognoser från 4000 flygplatser (METAR- och TAF-rapporter).

De tillgängliga stationerna syns som gula och röda prickar på kartan.

För musen över prickarna för att se namnen på stationerna.

Klicka sedan för att få väderrapporter och prognoser.

För att ändra kartan: Klicka på de gröna knapparna med ett svart kors på för att zooma in; den gröna knappen med ett streck på för att zooma ut; eller på de gröna pilarna för angränsande kartor.


METAR-TAF: